createdAt,value
2022-08-05T00:06:51.788Z,25.40
2022-08-05T00:16:57.243Z,25.50
2022-08-05T00:27:01.558Z,25.40
2022-08-05T00:37:14.238Z,25.60
2022-08-05T00:47:18.515Z,25.60
2022-08-05T00:57:25.417Z,25.70
2022-08-05T01:07:35.655Z,25.40
2022-08-05T01:17:47.077Z,25.40
2022-08-05T01:28:34.401Z,25.20
2022-08-05T01:38:40.028Z,25.20
2022-08-05T01:48:49.402Z,25.30
2022-08-05T01:58:56.161Z,25.20
2022-08-05T02:09:01.603Z,25.10
2022-08-05T02:19:17.566Z,25.00
2022-08-05T02:29:58.379Z,25.00
2022-08-05T02:39:51.858Z,24.80
2022-08-05T02:49:58.318Z,24.90
2022-08-05T03:00:02.673Z,24.70
2022-08-05T03:10:09.144Z,24.70
2022-08-05T03:20:13.832Z,24.60
2022-08-05T03:30:19.488Z,24.70
2022-08-05T03:40:32.804Z,24.80
2022-08-05T03:50:44.455Z,25.10
2022-08-05T04:00:51.536Z,25.30
2022-08-05T04:10:58.404Z,25.40
2022-08-05T04:21:05.800Z,25.40
2022-08-05T04:31:10.997Z,25.50
2022-08-05T04:41:15.795Z,25.40
2022-08-05T04:51:21.062Z,25.30
2022-08-05T05:01:33.526Z,25.30
2022-08-05T05:11:42.128Z,25.20
2022-08-05T05:22:03.441Z,25.30
2022-08-05T05:32:24.793Z,25.50
2022-08-05T05:42:29.809Z,25.50
2022-08-05T05:52:38.099Z,25.80
2022-08-05T06:02:44.921Z,26.10
2022-08-05T06:12:50.136Z,26.50
2022-08-05T06:22:53.905Z,26.80
2022-08-05T06:32:59.128Z,27.20
2022-08-05T06:43:02.865Z,27.70
2022-08-05T06:53:11.416Z,28.10
2022-08-05T07:03:15.676Z,28.20
2022-08-05T07:13:58.140Z,28.10
2022-08-05T07:24:03.395Z,28.20
2022-08-05T07:34:16.594Z,28.30
2022-08-05T07:44:25.568Z,28.50
2022-08-05T07:54:38.558Z,28.70
2022-08-05T08:04:45.322Z,28.70
2022-08-05T08:14:50.713Z,29.20
2022-08-05T08:24:54.496Z,29.50
2022-08-05T08:35:13.518Z,29.40
2022-08-05T08:45:26.544Z,29.40
2022-08-05T08:56:02.631Z,29.80
2022-08-05T09:06:08.487Z,30.10
2022-08-05T09:16:17.188Z,29.80
2022-08-05T09:26:22.252Z,30.40
2022-08-05T09:36:45.785Z,30.30
2022-08-05T09:47:12.599Z,30.10
2022-08-05T09:57:30.941Z,30.40
2022-08-05T10:08:35.230Z,30.90
2022-08-05T10:18:17.413Z,31.70
2022-08-05T10:28:29.345Z,31.90
2022-08-05T10:38:37.276Z,32.10
2022-08-05T10:48:56.983Z,32.30
2022-08-05T10:59:12.672Z,33.00
2022-08-05T11:09:46.450Z,32.70
2022-08-05T11:20:09.879Z,32.60
2022-08-05T11:30:15.400Z,34.60
2022-08-05T11:40:20.739Z,33.70
2022-08-05T11:50:26.754Z,32.70
2022-08-05T12:00:38.342Z,33.50
2022-08-05T12:10:46.307Z,34.10
2022-08-05T12:20:51.822Z,34.90
2022-08-05T12:30:57.444Z,35.50
2022-08-05T12:41:02.915Z,36.20
2022-08-05T12:52:10.273Z,36.10
2022-08-05T13:02:02.675Z,36.10
2022-08-05T13:12:08.310Z,36.60
2022-08-05T13:22:28.010Z,37.10
2022-08-05T13:32:39.181Z,36.80
2022-08-05T13:42:47.423Z,36.90
2022-08-05T13:52:59.333Z,36.80
2022-08-05T14:03:04.617Z,36.60
2022-08-05T14:13:09.898Z,37.30
2022-08-05T14:23:24.764Z,36.50
2022-08-05T14:33:56.759Z,34.30
2022-08-05T14:44:02.435Z,34.40
2022-08-05T14:54:27.945Z,34.20
2022-08-05T15:04:35.411Z,31.90
2022-08-05T15:14:44.202Z,31.30
2022-08-05T15:24:54.425Z,30.60
2022-08-05T15:34:58.157Z,23.00
2022-08-05T15:45:03.425Z,22.00
2022-08-05T15:55:15.577Z,21.90
2022-08-05T16:05:21.537Z,21.80
2022-08-05T16:15:32.400Z,22.20
2022-08-05T16:25:39.056Z,21.70
2022-08-05T16:35:44.698Z,22.10
2022-08-05T16:46:07.489Z,21.90
2022-08-05T16:56:15.391Z,21.90
2022-08-05T17:06:20.633Z,22.00
2022-08-05T17:16:32.741Z,22.10
2022-08-05T17:26:40.927Z,21.80
2022-08-05T17:36:44.817Z,22.00
2022-08-05T17:46:50.518Z,22.30
2022-08-05T17:56:54.284Z,22.90
2022-08-05T18:07:00.298Z,23.10
2022-08-05T18:17:06.873Z,23.10
2022-08-05T18:27:31.993Z,23.70
2022-08-05T18:37:40.265Z,23.40
2022-08-05T18:47:48.024Z,23.50
2022-08-05T18:58:03.402Z,23.50
2022-08-05T19:08:13.481Z,23.80
2022-08-05T19:18:22.095Z,24.10
2022-08-05T19:28:27.955Z,24.20
2022-08-05T19:38:33.119Z,24.10
2022-08-05T19:48:41.876Z,24.00
2022-08-05T19:58:53.972Z,24.00
2022-08-05T22:09:57.792Z,23.80
2022-08-05T22:20:13.929Z,23.70
2022-08-05T22:30:20.086Z,23.80
2022-08-05T22:40:24.034Z,23.60
2022-08-05T22:50:29.245Z,23.70
2022-08-05T23:00:32.964Z,23.50
2022-08-05T23:10:39.011Z,23.70
2022-08-05T23:20:43.106Z,23.50
2022-08-05T23:30:53.286Z,23.30
2022-08-05T23:40:57.819Z,23.40
2022-08-05T23:51:03.008Z,23.20
